sensor_id;sensor_type;location;lat;lon;timestamp;P1;durP1;ratioP1;P2;durP2;ratioP2
23555;SDS011;11956;53.184;8.578;2022-09-30T00:02:07;8.67;;;7.77;;
23555;SDS011;11956;53.184;8.578;2022-09-30T00:05:09;8.77;;;7.88;;
23555;SDS011;11956;53.184;8.578;2022-09-30T00:08:10;9.75;;;8.65;;
23555;SDS011;11956;53.184;8.578;2022-09-30T00:11:15;11.48;;;8.02;;
23555;SDS011;11956;53.184;8.578;2022-09-30T00:14:20;9.63;;;7.70;;
23555;SDS011;11956;53.184;8.578;2022-09-30T00:17:22;10.70;;;8.63;;
23555;SDS011;11956;53.184;8.578;2022-09-30T00:20:23;10.50;;;9.18;;
23555;SDS011;11956;53.184;8.578;2022-09-30T00:23:24;9.05;;;8.05;;
23555;SDS011;11956;53.184;8.578;2022-09-30T00:26:25;10.80;;;8.90;;
23555;SDS011;11956;53.184;8.578;2022-09-30T00:29:26;10.85;;;9.10;;
23555;SDS011;11956;53.184;8.578;2022-09-30T00:32:27;11.90;;;9.70;;
23555;SDS011;11956;53.184;8.578;2022-09-30T00:35:28;12.25;;;10.88;;
23555;SDS011;11956;53.184;8.578;2022-09-30T00:38:29;11.25;;;10.10;;
23555;SDS011;11956;53.184;8.578;2022-09-30T00:41:30;12.77;;;10.50;;
23555;SDS011;11956;53.184;8.578;2022-09-30T00:47:59;13.35;;;11.43;;
23555;SDS011;11956;53.184;8.578;2022-09-30T00:51:12;12.80;;;11.50;;
23555;SDS011;11956;53.184;8.578;2022-09-30T00:54:17;13.30;;;11.98;;
23555;SDS011;11956;53.184;8.578;2022-09-30T00:57:27;13.38;;;11.98;;
23555;SDS011;11956;53.184;8.578;2022-09-30T01:00:29;12.75;;;11.10;;
23555;SDS011;11956;53.184;8.578;2022-09-30T01:03:30;12.07;;;10.87;;
23555;SDS011;11956;53.184;8.578;2022-09-30T01:06:36;12.02;;;10.82;;
23555;SDS011;11956;53.184;8.578;2022-09-30T01:09:38;13.43;;;11.98;;
23555;SDS011;11956;53.184;8.578;2022-09-30T01:12:40;13.73;;;11.10;;
23555;SDS011;11956;53.184;8.578;2022-09-30T01:15:49;14.02;;;12.68;;
23555;SDS011;11956;53.184;8.578;2022-09-30T01:36:48;15.05;;;13.02;;
23555;SDS011;11956;53.184;8.578;2022-09-30T01:40:24;14.10;;;11.63;;
23555;SDS011;11956;53.184;8.578;2022-09-30T01:44:04;14.13;;;12.60;;
23555;SDS011;11956;53.184;8.578;2022-09-30T01:47:23;14.25;;;12.80;;
23555;SDS011;11956;53.184;8.578;2022-09-30T01:51:09;15.23;;;13.63;;
23555;SDS011;11956;53.184;8.578;2022-09-30T01:57:38;15.10;;;13.55;;
23555;SDS011;11956;53.184;8.578;2022-09-30T02:01:07;14.00;;;12.57;;
23555;SDS011;11956;53.184;8.578;2022-09-30T02:04:24;14.30;;;12.15;;
23555;SDS011;11956;53.184;8.578;2022-09-30T02:07:36;15.25;;;13.60;;
23555;SDS011;11956;53.184;8.578;2022-09-30T02:11:32;15.57;;;13.98;;
23555;SDS011;11956;53.184;8.578;2022-09-30T02:14:44;14.82;;;13.32;;
23555;SDS011;11956;53.184;8.578;2022-09-30T02:17:51;17.05;;;15.25;;
23555;SDS011;11956;53.184;8.578;2022-09-30T02:20:58;17.80;;;14.05;;
23555;SDS011;11956;53.184;8.578;2022-09-30T02:24:04;16.02;;;13.55;;
23555;SDS011;11956;53.184;8.578;2022-09-30T02:27:12;17.85;;;15.50;;
23555;SDS011;11956;53.184;8.578;2022-09-30T02:30:19;19.80;;;15.50;;
23555;SDS011;11956;53.184;8.578;2022-09-30T02:33:37;16.80;;;15.10;;
23555;SDS011;11956;53.184;8.578;2022-09-30T02:36:50;17.27;;;15.10;;
23555;SDS011;11956;53.184;8.578;2022-09-30T02:43:36;16.23;;;14.55;;
23555;SDS011;11956;53.184;8.578;2022-09-30T02:46:52;16.45;;;14.75;;
23555;SDS011;11956;53.184;8.578;2022-09-30T02:50:18;18.58;;;16.58;;
23555;SDS011;11956;53.184;8.578;2022-09-30T02:53:37;15.23;;;13.57;;
23555;SDS011;11956;53.184;8.578;2022-09-30T02:59:57;22.83;;;18.52;;
23555;SDS011;11956;53.184;8.578;2022-09-30T03:03:04;18.45;;;15.75;;
23555;SDS011;11956;53.184;8.578;2022-09-30T03:06:19;26.98;;;20.10;;
23555;SDS011;11956;53.184;8.578;2022-09-30T03:09:27;20.83;;;18.10;;
23555;SDS011;11956;53.184;8.578;2022-09-30T03:12:33;18.75;;;16.85;;
23555;SDS011;11956;53.184;8.578;2022-09-30T03:33:29;19.42;;;17.25;;
23555;SDS011;11956;53.184;8.578;2022-09-30T03:37:01;20.25;;;18.15;;
23555;SDS011;11956;53.184;8.578;2022-09-30T03:47:22;22.02;;;18.10;;
23555;SDS011;11956;53.184;8.578;2022-09-30T03:50:26;19.10;;;16.95;;
23555;SDS011;11956;53.184;8.578;2022-09-30T03:53:28;19.92;;;17.70;;
23555;SDS011;11956;53.184;8.578;2022-09-30T03:56:29;19.88;;;17.88;;
23555;SDS011;11956;53.184;8.578;2022-09-30T03:59:31;20.58;;;18.08;;
23555;SDS011;11956;53.184;8.578;2022-09-30T04:02:31;20.20;;;18.00;;
23555;SDS011;11956;53.184;8.578;2022-09-30T04:05:36;25.42;;;19.20;;
23555;SDS011;11956;53.184;8.578;2022-09-30T04:08:37;20.60;;;18.38;;
23555;SDS011;11956;53.184;8.578;2022-09-30T04:11:38;22.25;;;19.83;;
23555;SDS011;11956;53.184;8.578;2022-09-30T04:14:39;24.35;;;18.80;;
23555;SDS011;11956;53.184;8.578;2022-09-30T04:17:39;18.40;;;15.30;;
23555;SDS011;11956;53.184;8.578;2022-09-30T04:20:40;23.40;;;19.80;;
23555;SDS011;11956;53.184;8.578;2022-09-30T04:23:41;21.60;;;19.30;;
23555;SDS011;11956;53.184;8.578;2022-09-30T04:26:42;23.77;;;18.90;;
23555;SDS011;11956;53.184;8.578;2022-09-30T04:29:43;22.02;;;19.50;;
23555;SDS011;11956;53.184;8.578;2022-09-30T04:32:44;19.98;;;17.95;;
23555;SDS011;11956;53.184;8.578;2022-09-30T04:35:45;22.95;;;20.20;;
23555;SDS011;11956;53.184;8.578;2022-09-30T04:38:46;24.15;;;21.05;;
23555;SDS011;11956;53.184;8.578;2022-09-30T04:41:46;26.02;;;20.42;;
23555;SDS011;11956;53.184;8.578;2022-09-30T04:44:47;23.40;;;20.92;;
23555;SDS011;11956;53.184;8.578;2022-09-30T04:47:48;27.67;;;22.98;;
23555;SDS011;11956;53.184;8.578;2022-09-30T04:50:49;25.73;;;22.63;;
23555;SDS011;11956;53.184;8.578;2022-09-30T04:53:50;29.63;;;26.40;;
23555;SDS011;11956;53.184;8.578;2022-09-30T04:56:51;23.90;;;21.40;;
23555;SDS011;11956;53.184;8.578;2022-09-30T04:59:52;26.63;;;22.75;;
23555;SDS011;11956;53.184;8.578;2022-09-30T05:02:53;23.98;;;21.40;;
23555;SDS011;11956;53.184;8.578;2022-09-30T05:05:54;30.33;;;25.50;;
23555;SDS011;11956;53.184;8.578;2022-09-30T05:08:55;28.48;;;24.45;;
23555;SDS011;11956;53.184;8.578;2022-09-30T05:11:56;22.45;;;20.08;;
23555;SDS011;11956;53.184;8.578;2022-09-30T05:14:56;28.17;;;24.45;;
23555;SDS011;11956;53.184;8.578;2022-09-30T05:17:57;23.60;;;20.70;;
23555;SDS011;11956;53.184;8.578;2022-09-30T05:20:58;22.92;;;20.52;;
23555;SDS011;11956;53.184;8.578;2022-09-30T05:24:01;26.48;;;23.58;;
23555;SDS011;11956;53.184;8.578;2022-09-30T05:27:02;22.15;;;19.95;;
23555;SDS011;11956;53.184;8.578;2022-09-30T05:30:03;22.92;;;20.45;;
23555;SDS011;11956;53.184;8.578;2022-09-30T05:33:05;22.25;;;19.98;;
23555;SDS011;11956;53.184;8.578;2022-09-30T05:36:07;21.20;;;17.63;;
23555;SDS011;11956;53.184;8.578;2022-09-30T05:39:13;19.80;;;17.15;;
23555;SDS011;11956;53.184;8.578;2022-09-30T05:42:13;21.40;;;18.75;;
23555;SDS011;11956;53.184;8.578;2022-09-30T05:45:14;24.42;;;21.30;;
23555;SDS011;11956;53.184;8.578;2022-09-30T05:48:15;21.80;;;18.10;;
23555;SDS011;11956;53.184;8.578;2022-09-30T05:51:16;18.60;;;16.80;;
23555;SDS011;11956;53.184;8.578;2022-09-30T05:54:17;19.48;;;17.10;;
23555;SDS011;11956;53.184;8.578;2022-09-30T05:57:18;17.00;;;15.23;;
23555;SDS011;11956;53.184;8.578;2022-09-30T06:00:20;16.92;;;15.15;;
23555;SDS011;11956;53.184;8.578;2022-09-30T06:03:21;14.10;;;12.70;;
23555;SDS011;11956;53.184;8.578;2022-09-30T06:06:22;14.20;;;12.68;;
23555;SDS011;11956;53.184;8.578;2022-09-30T06:09:22;14.40;;;12.90;;
23555;SDS011;11956;53.184;8.578;2022-09-30T06:12:23;13.80;;;12.45;;
23555;SDS011;11956;53.184;8.578;2022-09-30T06:15:26;13.20;;;11.90;;
23555;SDS011;11956;53.184;8.578;2022-09-30T06:18:27;13.98;;;11.18;;
23555;SDS011;11956;53.184;8.578;2022-09-30T06:21:29;9.70;;;8.63;;
23555;SDS011;11956;53.184;8.578;2022-09-30T06:24:30;9.13;;;8.00;;
23555;SDS011;11956;53.184;8.578;2022-09-30T06:27:34;6.95;;;6.20;;
23555;SDS011;11956;53.184;8.578;2022-09-30T06:30:37;6.65;;;6.05;;
23555;SDS011;11956;53.184;8.578;2022-09-30T06:33:38;6.20;;;5.60;;
23555;SDS011;11956;53.184;8.578;2022-09-30T06:36:39;5.43;;;4.93;;
23555;SDS011;11956;53.184;8.578;2022-09-30T06:39:40;5.57;;;5.07;;
23555;SDS011;11956;53.184;8.578;2022-09-30T06:42:40;7.93;;;7.00;;
23555;SDS011;11956;53.184;8.578;2022-09-30T06:45:44;5.75;;;5.15;;
23555;SDS011;11956;53.184;8.578;2022-09-30T06:48:46;7.50;;;5.40;;
23555;SDS011;11956;53.184;8.578;2022-09-30T06:51:47;5.70;;;4.50;;
23555;SDS011;11956;53.184;8.578;2022-09-30T06:54:50;7.15;;;5.18;;
23555;SDS011;11956;53.184;8.578;2022-09-30T06:57:52;5.72;;;4.40;;
23555;SDS011;11956;53.184;8.578;2022-09-30T07:00:58;5.40;;;4.78;;
23555;SDS011;11956;53.184;8.578;2022-09-30T07:04:02;7.57;;;4.28;;
23555;SDS011;11956;53.184;8.578;2022-09-30T07:07:08;6.55;;;4.90;;
23555;SDS011;11956;53.184;8.578;2022-09-30T07:10:09;6.78;;;4.45;;
23555;SDS011;11956;53.184;8.578;2022-09-30T07:13:10;5.82;;;4.40;;
23555;SDS011;11956;53.184;8.578;2022-09-30T07:16:13;4.80;;;4.40;;
23555;SDS011;11956;53.184;8.578;2022-09-30T07:19:17;4.30;;;3.90;;
23555;SDS011;11956;53.184;8.578;2022-09-30T07:22:21;5.55;;;4.00;;
23555;SDS011;11956;53.184;8.578;2022-09-30T07:25:33;6.00;;;4.20;;
23555;SDS011;11956;53.184;8.578;2022-09-30T07:28:34;5.32;;;4.28;;
23555;SDS011;11956;53.184;8.578;2022-09-30T07:31:38;5.53;;;4.25;;
23555;SDS011;11956;53.184;8.578;2022-09-30T07:34:40;7.78;;;6.50;;
23555;SDS011;11956;53.184;8.578;2022-09-30T07:37:43;4.72;;;4.10;;
23555;SDS011;11956;53.184;8.578;2022-09-30T07:41:19;3.83;;;3.42;;
23555;SDS011;11956;53.184;8.578;2022-09-30T07:44:15;4.78;;;3.22;;
23555;SDS011;11956;53.184;8.578;2022-09-30T07:47:16;5.90;;;3.90;;
23555;SDS011;11956;53.184;8.578;2022-09-30T07:50:18;6.13;;;3.38;;
23555;SDS011;11956;53.184;8.578;2022-09-30T07:53:19;6.30;;;3.33;;
23555;SDS011;11956;53.184;8.578;2022-09-30T07:56:20;5.78;;;3.88;;
23555;SDS011;11956;53.184;8.578;2022-09-30T07:59:23;3.08;;;2.70;;
23555;SDS011;11956;53.184;8.578;2022-09-30T08:02:26;3.97;;;3.13;;
23555;SDS011;11956;53.184;8.578;2022-09-30T08:05:27;4.00;;;2.95;;
23555;SDS011;11956;53.184;8.578;2022-09-30T08:08:28;3.80;;;3.50;;
23555;SDS011;11956;53.184;8.578;2022-09-30T08:11:31;3.95;;;3.65;;
23555;SDS011;11956;53.184;8.578;2022-09-30T08:14:34;5.00;;;3.80;;
23555;SDS011;11956;53.184;8.578;2022-09-30T08:17:35;7.78;;;3.90;;
23555;SDS011;11956;53.184;8.578;2022-09-30T08:20:35;4.63;;;4.20;;
23555;SDS011;11956;53.184;8.578;2022-09-30T08:23:36;5.85;;;3.47;;
23555;SDS011;11956;53.184;8.578;2022-09-30T08:26:38;3.90;;;3.60;;
23555;SDS011;11956;53.184;8.578;2022-09-30T08:29:39;4.05;;;3.40;;
23555;SDS011;11956;53.184;8.578;2022-09-30T08:32:41;6.05;;;3.80;;
23555;SDS011;11956;53.184;8.578;2022-09-30T08:35:42;3.92;;;3.45;;
23555;SDS011;11956;53.184;8.578;2022-09-30T08:38:43;5.18;;;4.03;;
23555;SDS011;11956;53.184;8.578;2022-09-30T08:41:51;3.95;;;3.55;;
23555;SDS011;11956;53.184;8.578;2022-09-30T08:52:04;6.55;;;4.47;;
23555;SDS011;11956;53.184;8.578;2022-09-30T08:55:23;8.13;;;5.05;;
23555;SDS011;11956;53.184;8.578;2022-09-30T08:58:38;7.30;;;4.82;;
23555;SDS011;11956;53.184;8.578;2022-09-30T09:01:46;3.40;;;3.08;;
23555;SDS011;11956;53.184;8.578;2022-09-30T09:04:59;6.27;;;3.80;;
23555;SDS011;11956;53.184;8.578;2022-09-30T09:08:20;4.70;;;3.30;;
23555;SDS011;11956;53.184;8.578;2022-09-30T09:12:00;3.22;;;2.92;;
23555;SDS011;11956;53.184;8.578;2022-09-30T09:15:29;4.53;;;3.25;;
23555;SDS011;11956;53.184;8.578;2022-09-30T09:25:10;11.27;;;4.80;;
23555;SDS011;11956;53.184;8.578;2022-09-30T09:28:23;4.60;;;3.47;;
23555;SDS011;11956;53.184;8.578;2022-09-30T09:31:41;5.53;;;4.07;;
23555;SDS011;11956;53.184;8.578;2022-09-30T09:34:42;4.32;;;3.92;;
23555;SDS011;11956;53.184;8.578;2022-09-30T09:48:06;5.75;;;4.30;;
23555;SDS011;11956;53.184;8.578;2022-09-30T09:51:23;6.80;;;5.20;;
23555;SDS011;11956;53.184;8.578;2022-09-30T09:54:35;5.28;;;4.07;;
23555;SDS011;11956;53.184;8.578;2022-09-30T09:57:43;4.70;;;3.80;;
23555;SDS011;11956;53.184;8.578;2022-09-30T10:00:44;4.05;;;3.47;;
23555;SDS011;11956;53.184;8.578;2022-09-30T10:03:45;5.10;;;3.85;;
23555;SDS011;11956;53.184;8.578;2022-09-30T10:06:48;4.50;;;4.03;;
23555;SDS011;11956;53.184;8.578;2022-09-30T10:10:06;4.95;;;3.10;;
23555;SDS011;11956;53.184;8.578;2022-09-30T10:13:22;3.55;;;2.90;;
23555;SDS011;11956;53.184;8.578;2022-09-30T10:16:27;3.20;;;2.60;;
23555;SDS011;11956;53.184;8.578;2022-09-30T10:19:34;3.03;;;2.55;;
23555;SDS011;11956;53.184;8.578;2022-09-30T10:22:35;4.45;;;3.35;;
23555;SDS011;11956;53.184;8.578;2022-09-30T10:25:36;3.47;;;3.17;;
23555;SDS011;11956;53.184;8.578;2022-09-30T10:28:47;4.68;;;3.80;;
23555;SDS011;11956;53.184;8.578;2022-09-30T10:32:00;4.45;;;3.65;;
23555;SDS011;11956;53.184;8.578;2022-09-30T10:35:10;5.57;;;3.80;;
23555;SDS011;11956;53.184;8.578;2022-09-30T10:38:22;4.38;;;3.65;;
23555;SDS011;11956;53.184;8.578;2022-09-30T10:41:29;4.18;;;3.40;;
23555;SDS011;11956;53.184;8.578;2022-09-30T10:44:35;4.28;;;3.88;;
23555;SDS011;11956;53.184;8.578;2022-09-30T10:47:47;5.80;;;3.00;;
23555;SDS011;11956;53.184;8.578;2022-09-30T10:50:52;5.18;;;2.20;;
23555;SDS011;11956;53.184;8.578;2022-09-30T10:53:55;4.38;;;2.97;;
23555;SDS011;11956;53.184;8.578;2022-09-30T10:56:59;3.90;;;2.95;;
23555;SDS011;11956;53.184;8.578;2022-09-30T11:03:15;3.85;;;3.00;;
23555;SDS011;11956;53.184;8.578;2022-09-30T11:06:24;5.82;;;3.53;;
23555;SDS011;11956;53.184;8.578;2022-09-30T11:12:47;4.05;;;2.47;;
23555;SDS011;11956;53.184;8.578;2022-09-30T11:19:34;4.30;;;3.28;;
23555;SDS011;11956;53.184;8.578;2022-09-30T11:22:52;4.53;;;2.60;;
23555;SDS011;11956;53.184;8.578;2022-09-30T11:29:34;5.50;;;3.53;;
23555;SDS011;11956;53.184;8.578;2022-09-30T11:35:54;5.03;;;3.20;;
23555;SDS011;11956;53.184;8.578;2022-09-30T11:56:53;3.47;;;2.63;;
23555;SDS011;11956;53.184;8.578;2022-09-30T12:00:00;3.05;;;2.30;;
23555;SDS011;11956;53.184;8.578;2022-09-30T12:03:12;2.37;;;2.13;;
23555;SDS011;11956;53.184;8.578;2022-09-30T12:06:36;2.30;;;2.10;;
23555;SDS011;11956;53.184;8.578;2022-09-30T12:09:57;6.32;;;5.18;;
23555;SDS011;11956;53.184;8.578;2022-09-30T12:13:05;4.93;;;2.97;;
23555;SDS011;11956;53.184;8.578;2022-09-30T12:16:16;4.13;;;3.65;;
23555;SDS011;11956;53.184;8.578;2022-09-30T12:22:35;4.43;;;3.28;;
23555;SDS011;11956;53.184;8.578;2022-09-30T12:25:43;6.03;;;3.35;;
23555;SDS011;11956;53.184;8.578;2022-09-30T12:29:04;6.82;;;4.22;;
23555;SDS011;11956;53.184;8.578;2022-09-30T12:50:16;6.55;;;4.82;;
23555;SDS011;11956;53.184;8.578;2022-09-30T12:53:26;5.22;;;4.53;;
23555;SDS011;11956;53.184;8.578;2022-09-30T12:56:30;6.32;;;4.38;;
23555;SDS011;11956;53.184;8.578;2022-09-30T13:02:39;6.38;;;4.93;;
23555;SDS011;11956;53.184;8.578;2022-09-30T13:05:55;6.13;;;5.32;;
23555;SDS011;11956;53.184;8.578;2022-09-30T13:09:06;7.13;;;5.60;;
23555;SDS011;11956;53.184;8.578;2022-09-30T13:12:39;8.10;;;5.40;;
23555;SDS011;11956;53.184;8.578;2022-09-30T13:15:44;7.32;;;5.72;;
23555;SDS011;11956;53.184;8.578;2022-09-30T13:21:46;9.45;;;5.82;;
23555;SDS011;11956;53.184;8.578;2022-09-30T13:31:20;9.18;;;6.00;;
23555;SDS011;11956;53.184;8.578;2022-09-30T13:34:32;9.25;;;6.95;;
23555;SDS011;11956;53.184;8.578;2022-09-30T13:38:08;9.30;;;6.88;;
23555;SDS011;11956;53.184;8.578;2022-09-30T13:41:21;10.25;;;7.18;;
23555;SDS011;11956;53.184;8.578;2022-09-30T13:44:30;7.57;;;6.47;;
23555;SDS011;11956;53.184;8.578;2022-09-30T13:47:44;9.55;;;7.18;;
23555;SDS011;11956;53.184;8.578;2022-09-30T13:50:57;8.25;;;6.85;;
23555;SDS011;11956;53.184;8.578;2022-09-30T13:54:07;9.77;;;6.93;;
23555;SDS011;11956;53.184;8.578;2022-09-30T13:57:27;9.40;;;8.02;;
23555;SDS011;11956;53.184;8.578;2022-09-30T14:00:59;10.70;;;6.85;;
23555;SDS011;11956;53.184;8.578;2022-09-30T14:11:50;7.47;;;6.00;;
23555;SDS011;11956;53.184;8.578;2022-09-30T14:18:41;8.40;;;6.05;;
23555;SDS011;11956;53.184;8.578;2022-09-30T14:22:48;7.63;;;6.10;;
23555;SDS011;11956;53.184;8.578;2022-09-30T14:25:54;6.82;;;5.75;;
23555;SDS011;11956;53.184;8.578;2022-09-30T14:33:15;6.32;;;5.40;;
23555;SDS011;11956;53.184;8.578;2022-09-30T14:36:23;9.00;;;5.97;;
23555;SDS011;11956;53.184;8.578;2022-09-30T14:39:26;7.75;;;5.68;;
23555;SDS011;11956;53.184;8.578;2022-09-30T14:42:31;8.35;;;5.70;;
23555;SDS011;11956;53.184;8.578;2022-09-30T14:45:38;9.30;;;6.50;;
23555;SDS011;11956;53.184;8.578;2022-09-30T14:48:42;7.63;;;6.40;;
23555;SDS011;11956;53.184;8.578;2022-09-30T14:51:47;9.27;;;6.18;;
23555;SDS011;11956;53.184;8.578;2022-09-30T14:54:48;10.63;;;5.90;;
23555;SDS011;11956;53.184;8.578;2022-09-30T14:57:50;9.10;;;6.57;;
23555;SDS011;11956;53.184;8.578;2022-09-30T15:01:17;8.93;;;6.60;;
23555;SDS011;11956;53.184;8.578;2022-09-30T15:04:26;9.23;;;6.38;;
23555;SDS011;11956;53.184;8.578;2022-09-30T15:07:33;7.50;;;4.95;;
23555;SDS011;11956;53.184;8.578;2022-09-30T15:10:34;7.60;;;5.20;;
23555;SDS011;11956;53.184;8.578;2022-09-30T15:13:35;7.95;;;5.10;;
23555;SDS011;11956;53.184;8.578;2022-09-30T15:20:23;11.82;;;5.97;;
23555;SDS011;11956;53.184;8.578;2022-09-30T15:26:31;7.78;;;5.60;;
23555;SDS011;11956;53.184;8.578;2022-09-30T15:29:33;7.80;;;5.25;;
23555;SDS011;11956;53.184;8.578;2022-09-30T15:32:34;5.85;;;5.30;;
23555;SDS011;11956;53.184;8.578;2022-09-30T15:35:35;7.80;;;5.78;;
23555;SDS011;11956;53.184;8.578;2022-09-30T15:38:36;6.70;;;5.07;;
23555;SDS011;11956;53.184;8.578;2022-09-30T15:41:38;8.38;;;5.80;;
23555;SDS011;11956;53.184;8.578;2022-09-30T15:44:40;7.30;;;5.97;;
23555;SDS011;11956;53.184;8.578;2022-09-30T15:47:52;5.88;;;5.05;;
23555;SDS011;11956;53.184;8.578;2022-09-30T15:50:58;9.32;;;5.95;;
23555;SDS011;11956;53.184;8.578;2022-09-30T15:54:45;8.23;;;5.70;;
23555;SDS011;11956;53.184;8.578;2022-09-30T15:57:45;7.65;;;5.38;;
23555;SDS011;11956;53.184;8.578;2022-09-30T16:00:47;7.28;;;5.60;;
23555;SDS011;11956;53.184;8.578;2022-09-30T16:07:13;9.55;;;5.68;;
23555;SDS011;11956;53.184;8.578;2022-09-30T16:10:17;7.93;;;5.97;;
23555;SDS011;11956;53.184;8.578;2022-09-30T16:13:20;7.72;;;5.53;;
23555;SDS011;11956;53.184;8.578;2022-09-30T16:16:27;8.00;;;5.90;;
23555;SDS011;11956;53.184;8.578;2022-09-30T16:19:31;7.68;;;6.85;;
23555;SDS011;11956;53.184;8.578;2022-09-30T16:25:39;7.60;;;6.45;;
23555;SDS011;11956;53.184;8.578;2022-09-30T16:28:41;8.27;;;6.68;;
23555;SDS011;11956;53.184;8.578;2022-09-30T16:31:42;8.35;;;7.20;;
23555;SDS011;11956;53.184;8.578;2022-09-30T16:34:45;8.20;;;7.40;;
23555;SDS011;11956;53.184;8.578;2022-09-30T16:37:46;8.13;;;7.32;;
23555;SDS011;11956;53.184;8.578;2022-09-30T16:40:48;9.90;;;7.85;;
23555;SDS011;11956;53.184;8.578;2022-09-30T16:43:49;8.70;;;7.80;;
23555;SDS011;11956;53.184;8.578;2022-09-30T16:46:50;11.70;;;8.60;;
23555;SDS011;11956;53.184;8.578;2022-09-30T16:49:51;10.10;;;8.02;;
23555;SDS011;11956;53.184;8.578;2022-09-30T16:52:52;10.48;;;8.98;;
23555;SDS011;11956;53.184;8.578;2022-09-30T16:55:53;11.07;;;9.18;;
23555;SDS011;11956;53.184;8.578;2022-09-30T16:58:55;10.52;;;9.52;;
23555;SDS011;11956;53.184;8.578;2022-09-30T17:01:57;12.25;;;9.80;;
23555;SDS011;11956;53.184;8.578;2022-09-30T17:04:59;11.17;;;9.07;;
23555;SDS011;11956;53.184;8.578;2022-09-30T17:08:00;11.07;;;9.95;;
23555;SDS011;11956;53.184;8.578;2022-09-30T17:11:01;11.20;;;9.73;;
23555;SDS011;11956;53.184;8.578;2022-09-30T17:14:03;12.63;;;10.38;;
23555;SDS011;11956;53.184;8.578;2022-09-30T17:17:05;10.55;;;9.38;;
23555;SDS011;11956;53.184;8.578;2022-09-30T17:20:06;10.02;;;9.02;;
23555;SDS011;11956;53.184;8.578;2022-09-30T17:23:08;19.23;;;14.90;;
23555;SDS011;11956;53.184;8.578;2022-09-30T17:26:10;11.10;;;10.07;;
23555;SDS011;11956;53.184;8.578;2022-09-30T17:29:12;11.15;;;8.90;;
23555;SDS011;11956;53.184;8.578;2022-09-30T17:32:13;10.20;;;9.13;;
23555;SDS011;11956;53.184;8.578;2022-09-30T17:35:14;12.55;;;9.40;;
23555;SDS011;11956;53.184;8.578;2022-09-30T17:38:15;10.27;;;9.27;;
23555;SDS011;11956;53.184;8.578;2022-09-30T17:41:16;10.52;;;9.10;;
23555;SDS011;11956;53.184;8.578;2022-09-30T17:44:36;10.93;;;9.20;;
23555;SDS011;11956;53.184;8.578;2022-09-30T17:47:38;10.30;;;9.30;;
23555;SDS011;11956;53.184;8.578;2022-09-30T17:50:41;10.48;;;9.38;;
23555;SDS011;11956;53.184;8.578;2022-09-30T17:53:45;12.48;;;9.82;;
23555;SDS011;11956;53.184;8.578;2022-09-30T17:56:46;12.15;;;9.50;;
23555;SDS011;11956;53.184;8.578;2022-09-30T17:59:47;11.15;;;10.05;;
23555;SDS011;11956;53.184;8.578;2022-09-30T18:02:48;12.75;;;11.43;;
23555;SDS011;11956;53.184;8.578;2022-09-30T18:05:55;12.30;;;9.57;;
23555;SDS011;11956;53.184;8.578;2022-09-30T18:08:57;12.25;;;10.10;;
23555;SDS011;11956;53.184;8.578;2022-09-30T18:11:59;14.95;;;10.13;;
23555;SDS011;11956;53.184;8.578;2022-09-30T18:15:00;11.32;;;10.13;;
23555;SDS011;11956;53.184;8.578;2022-09-30T18:18:01;11.43;;;10.18;;
23555;SDS011;11956;53.184;8.578;2022-09-30T18:21:02;13.13;;;10.52;;
23555;SDS011;11956;53.184;8.578;2022-09-30T18:24:04;11.13;;;10.02;;
23555;SDS011;11956;53.184;8.578;2022-09-30T18:27:05;11.38;;;10.27;;
23555;SDS011;11956;53.184;8.578;2022-09-30T18:30:06;12.73;;;10.82;;
23555;SDS011;11956;53.184;8.578;2022-09-30T18:33:08;12.40;;;11.10;;
23555;SDS011;11956;53.184;8.578;2022-09-30T18:36:10;12.77;;;10.88;;
23555;SDS011;11956;53.184;8.578;2022-09-30T18:39:10;12.10;;;10.77;;
23555;SDS011;11956;53.184;8.578;2022-09-30T18:42:11;13.18;;;11.70;;
23555;SDS011;11956;53.184;8.578;2022-09-30T18:45:12;14.73;;;11.40;;
23555;SDS011;11956;53.184;8.578;2022-09-30T18:48:13;12.80;;;11.50;;
23555;SDS011;11956;53.184;8.578;2022-09-30T18:51:14;12.85;;;10.95;;
23555;SDS011;11956;53.184;8.578;2022-09-30T18:54:17;11.55;;;10.32;;
23555;SDS011;11956;53.184;8.578;2022-09-30T18:57:18;12.80;;;10.55;;
23555;SDS011;11956;53.184;8.578;2022-09-30T19:00:19;17.25;;;12.15;;
23555;SDS011;11956;53.184;8.578;2022-09-30T19:03:20;12.70;;;10.63;;
23555;SDS011;11956;53.184;8.578;2022-09-30T19:06:21;13.00;;;11.60;;
23555;SDS011;11956;53.184;8.578;2022-09-30T19:09:22;13.10;;;11.65;;
23555;SDS011;11956;53.184;8.578;2022-09-30T19:12:25;13.32;;;11.35;;
23555;SDS011;11956;53.184;8.578;2022-09-30T19:15:31;17.23;;;11.43;;
23555;SDS011;11956;53.184;8.578;2022-09-30T19:18:32;12.68;;;10.43;;
23555;SDS011;11956;53.184;8.578;2022-09-30T19:21:33;14.50;;;10.23;;
23555;SDS011;11956;53.184;8.578;2022-09-30T19:24:36;11.30;;;9.85;;
23555;SDS011;11956;53.184;8.578;2022-09-30T19:27:41;11.48;;;9.85;;
23555;SDS011;11956;53.184;8.578;2022-09-30T19:30:43;13.38;;;10.52;;
23555;SDS011;11956;53.184;8.578;2022-09-30T19:33:46;13.38;;;10.52;;
23555;SDS011;11956;53.184;8.578;2022-09-30T19:36:47;12.50;;;10.07;;
23555;SDS011;11956;53.184;8.578;2022-09-30T19:39:48;12.63;;;9.38;;
23555;SDS011;11956;53.184;8.578;2022-09-30T19:42:49;14.95;;;10.20;;
23555;SDS011;11956;53.184;8.578;2022-09-30T19:45:54;13.93;;;10.23;;
23555;SDS011;11956;53.184;8.578;2022-09-30T19:48:57;12.43;;;10.15;;
23555;SDS011;11956;53.184;8.578;2022-09-30T19:51:58;12.57;;;10.20;;
23555;SDS011;11956;53.184;8.578;2022-09-30T19:55:03;12.13;;;9.90;;
23555;SDS011;11956;53.184;8.578;2022-09-30T19:58:05;12.32;;;9.68;;
23555;SDS011;11956;53.184;8.578;2022-09-30T20:01:06;11.43;;;9.85;;
23555;SDS011;11956;53.184;8.578;2022-09-30T20:04:08;10.70;;;9.43;;
23555;SDS011;11956;53.184;8.578;2022-09-30T20:07:09;14.02;;;9.80;;
23555;SDS011;11956;53.184;8.578;2022-09-30T20:10:10;11.85;;;9.30;;
23555;SDS011;11956;53.184;8.578;2022-09-30T20:13:11;13.27;;;9.90;;
23555;SDS011;11956;53.184;8.578;2022-09-30T20:16:12;11.95;;;9.90;;
23555;SDS011;11956;53.184;8.578;2022-09-30T20:19:15;14.33;;;10.13;;
23555;SDS011;11956;53.184;8.578;2022-09-30T20:22:18;20.48;;;13.65;;
23555;SDS011;11956;53.184;8.578;2022-09-30T20:25:19;16.35;;;12.07;;
23555;SDS011;11956;53.184;8.578;2022-09-30T20:28:20;18.00;;;12.00;;
23555;SDS011;11956;53.184;8.578;2022-09-30T20:31:23;12.65;;;10.30;;
23555;SDS011;11956;53.184;8.578;2022-09-30T20:34:24;13.50;;;10.52;;
23555;SDS011;11956;53.184;8.578;2022-09-30T20:37:25;14.82;;;10.18;;
23555;SDS011;11956;53.184;8.578;2022-09-30T20:40:26;14.90;;;10.32;;
23555;SDS011;11956;53.184;8.578;2022-09-30T20:43:27;14.68;;;10.68;;
23555;SDS011;11956;53.184;8.578;2022-09-30T20:49:32;13.63;;;10.63;;
23555;SDS011;11956;53.184;8.578;2022-09-30T20:52:33;12.68;;;10.45;;
23555;SDS011;11956;53.184;8.578;2022-09-30T20:55:37;17.48;;;11.20;;
23555;SDS011;11956;53.184;8.578;2022-09-30T20:58:40;13.77;;;9.57;;
23555;SDS011;11956;53.184;8.578;2022-09-30T21:01:42;14.68;;;10.45;;
23555;SDS011;11956;53.184;8.578;2022-09-30T21:04:43;15.10;;;10.73;;
23555;SDS011;11956;53.184;8.578;2022-09-30T21:07:43;15.23;;;10.80;;
23555;SDS011;11956;53.184;8.578;2022-09-30T21:10:44;12.82;;;9.82;;
23555;SDS011;11956;53.184;8.578;2022-09-30T21:13:46;15.20;;;9.45;;
23555;SDS011;11956;53.184;8.578;2022-09-30T21:16:49;14.20;;;9.85;;
23555;SDS011;11956;53.184;8.578;2022-09-30T21:19:50;12.68;;;9.65;;
23555;SDS011;11956;53.184;8.578;2022-09-30T21:22:51;12.48;;;9.65;;
23555;SDS011;11956;53.184;8.578;2022-09-30T21:25:59;13.18;;;9.77;;